KSUS/SUS METAR and TAF weather

Enter ICAO airport designator
Station Type Date Time Source
KSUS METAR 2022/05/26 05:54 UTC NOAA

KSUS 260554Z AUTO 14004KT 10SM CLR 20/18 A2973 RMK AO2 SLP061 T02000183 10217 20189 402670183 50004


Station Type Date Time Source
KSUS Decoded METAR 2022/05/26 05:54 UTC NOAA

SPIRIT OF ST. LOUIS AIRPORT , MO, United States (KSUS) 38-39N 090-39W 141M
May 26, 2022 - 01:54 AM EDT / 2022.05.26 0554 UTC
Wind: from the SE (140 degrees) at 5 MPH (4 KT):0
Visibility: 10 mile(s):0
Sky conditions: clear
Temperature: 68.0 F (20.0 C)
Dew Point: 64.9 F (18.3 C)
Relative Humidity: 89%
Pressure (altimeter): 29.73 in. Hg (1006 hPa)
Pressure tendency: 0.01 inches (0.4 hPa) higher than three hours ago
ob: KSUS 260554Z AUTO 14004KT 10SM CLR 20/18 A2973 RMK AO2 SLP061 T02000183 10217 20189 402670183 50004
cycle: 6

Station Type Date Time Source
KSUS TAF 2022/05/26 06:22 UTC NOAA

TAF KSUS 260520Z 2606/2706 16007KT P6SM VCSH BKN100
FM261100 14007KT P6SM VCTS OVC027CB
FM261300 15010KT P6SM VCTS BKN018CB
FM261500 17010KT P6SM SCT025 BKN035
FM262100 19011KT 6SM -SHRA BR VCTS OVC035CB
FM270300 VRB03KT P6SM VCSH BKN025

Example: see airport list